Search METAR Data

METAR Data for ENNA:

ENNA 241450Z 15009KT 9999 SCT030 BKN038 05/00 Q1014 RMK WIND 1800FT 16012KT